createdAt,value
2023-01-08T00:00:12.827Z,79.79
2023-01-08T00:05:14.373Z,79.76
2023-01-08T00:10:15.968Z,80.03
2023-01-08T00:15:17.575Z,79.68
2023-01-08T00:20:19.136Z,79.41
2023-01-08T00:25:20.849Z,79.83
2023-01-08T00:30:22.448Z,80.00
2023-01-08T00:35:24.108Z,80.07
2023-01-08T00:40:25.838Z,80.32
2023-01-08T00:45:27.403Z,80.11
2023-01-08T00:50:28.984Z,79.79
2023-01-08T00:55:30.833Z,79.42
2023-01-08T01:00:32.599Z,79.60
2023-01-08T01:05:34.180Z,79.43
2023-01-08T01:10:35.795Z,79.62
2023-01-08T01:15:37.367Z,79.64
2023-01-08T01:20:39.036Z,79.44
2023-01-08T01:25:40.629Z,79.41
2023-01-08T01:30:42.269Z,79.24
2023-01-08T01:35:43.948Z,79.14
2023-01-08T01:40:45.583Z,79.21
2023-01-08T01:45:47.343Z,78.90
2023-01-08T01:50:51.950Z,79.25
2023-01-08T01:55:53.655Z,78.43
2023-01-08T02:00:57.391Z,78.66
2023-01-08T02:06:29.838Z,78.43
2023-01-08T02:11:39.349Z,77.81
2023-01-08T02:16:47.503Z,78.04
2023-01-08T02:22:12.428Z,78.69
2023-01-08T02:27:15.120Z,77.85
2023-01-08T02:32:16.769Z,77.97
2023-01-08T02:37:18.454Z,77.92
2023-01-08T02:42:44.688Z,77.93
2023-01-08T02:47:53.837Z,77.57
2023-01-08T02:52:55.357Z,78.11
2023-01-08T02:57:57.895Z,78.10
2023-01-08T03:03:10.861Z,77.72
2023-01-08T03:08:12.638Z,77.89
2023-01-08T03:13:22.978Z,77.32
2023-01-08T03:18:30.156Z,77.76
2023-01-08T03:23:34.722Z,78.15
2023-01-08T03:28:43.757Z,77.62
2023-01-08T03:33:46.745Z,78.16
2023-01-08T03:38:53.471Z,78.57
2023-01-08T03:43:55.718Z,78.67
2023-01-08T03:48:58.300Z,78.03
2023-01-08T03:53:59.996Z,78.42
2023-01-08T03:59:01.579Z,78.01
2023-01-08T04:04:03.252Z,77.56
2023-01-08T04:09:05.128Z,78.18
2023-01-08T04:14:06.725Z,77.74
2023-01-08T04:19:08.364Z,78.33
2023-01-08T04:24:12.034Z,77.72
2023-01-08T04:29:14.332Z,77.74
2023-01-08T04:34:15.953Z,78.30
2023-01-08T04:39:17.711Z,77.76
2023-01-08T04:44:19.319Z,77.33
2023-01-08T04:49:20.983Z,77.98
2023-01-08T04:54:22.580Z,78.76
2023-01-08T04:59:24.175Z,78.63
2023-01-08T05:04:25.843Z,78.48
2023-01-08T05:09:27.440Z,78.07
2023-01-08T05:14:29.049Z,78.38
2023-01-08T05:19:30.604Z,79.14
2023-01-08T05:24:32.163Z,78.02
2023-01-08T05:29:34.897Z,78.65
2023-01-08T05:34:36.464Z,79.25
2023-01-08T05:39:38.292Z,80.15
2023-01-08T05:44:39.878Z,79.83
2023-01-08T05:49:41.447Z,79.36
2023-01-08T05:54:43.049Z,79.12
2023-01-08T05:59:44.663Z,78.98
2023-01-08T06:04:46.337Z,79.11
2023-01-08T06:09:47.937Z,79.09
2023-01-08T06:14:49.519Z,78.35
2023-01-08T06:19:51.125Z,78.99
2023-01-08T06:24:52.907Z,78.79
2023-01-08T06:29:54.479Z,78.64
2023-01-08T06:34:56.079Z,77.98
2023-01-08T06:39:57.666Z,77.80
2023-01-08T06:44:59.257Z,78.29
2023-01-08T06:50:01.119Z,78.10
2023-01-08T06:55:04.848Z,78.49
2023-01-08T07:00:07.295Z,77.83
2023-01-08T07:05:09.147Z,77.44
2023-01-08T07:10:11.167Z,77.97
2023-01-08T07:15:12.793Z,77.78
2023-01-08T07:20:14.373Z,77.63
2023-01-08T07:25:16.150Z,77.83
2023-01-08T07:30:28.791Z,77.56
2023-01-08T07:35:31.274Z,77.37
2023-01-08T07:40:32.937Z,77.54
2023-01-08T07:45:34.658Z,78.02
2023-01-08T07:50:37.703Z,77.78
2023-01-08T07:55:39.375Z,77.77
2023-01-08T08:00:41.154Z,77.88
2023-01-08T08:05:42.799Z,77.48
2023-01-08T08:10:44.897Z,77.83
2023-01-08T08:15:46.482Z,77.84
2023-01-08T08:20:51.823Z,77.87
2023-01-08T08:25:53.570Z,77.25
2023-01-08T08:30:55.286Z,76.76
2023-01-08T08:35:56.882Z,76.33
2023-01-08T08:40:58.681Z,76.67
2023-01-08T08:46:00.257Z,76.30
2023-01-08T08:51:01.832Z,75.57
2023-01-08T08:56:03.577Z,75.89
2023-01-08T09:01:05.327Z,75.69
2023-01-08T09:06:07.242Z,75.39
2023-01-08T09:11:09.960Z,75.76
2023-01-08T09:16:11.678Z,75.72
2023-01-08T09:21:13.490Z,75.57
2023-01-08T09:26:15.054Z,75.45
2023-01-08T09:31:16.730Z,75.43
2023-01-08T09:36:18.509Z,75.57
2023-01-08T09:41:24.368Z,75.31
2023-01-08T09:46:27.494Z,75.49
2023-01-08T09:51:34.995Z,75.56
2023-01-08T09:56:36.953Z,75.83
2023-01-08T10:01:40.934Z,75.33
2023-01-08T10:06:54.615Z,74.90
2023-01-08T10:11:59.683Z,74.63
2023-01-08T10:17:11.480Z,75.35
2023-01-08T10:22:17.821Z,75.19
2023-01-08T10:27:23.907Z,74.80
2023-01-08T10:32:30.828Z,74.53
2023-01-08T10:37:39.244Z,74.62
2023-01-08T10:42:40.913Z,74.71
2023-01-08T10:47:46.466Z,74.27
2023-01-08T10:52:57.320Z,74.35
2023-01-08T10:58:14.205Z,74.30
2023-01-08T11:03:27.437Z,73.99
2023-01-08T11:08:29.058Z,74.51
2023-01-08T11:13:30.748Z,74.57
2023-01-08T11:18:36.904Z,74.07
2023-01-08T11:23:38.593Z,74.51
2023-01-08T11:28:51.497Z,74.43
2023-01-08T11:33:58.359Z,73.74
2023-01-08T11:39:00.924Z,73.70
2023-01-08T11:44:43.999Z,74.91
2023-01-08T11:50:03.411Z,74.04
2023-01-08T11:55:24.509Z,73.61
2023-01-08T12:00:35.355Z,74.15
2023-01-08T12:05:47.050Z,73.87
2023-01-08T12:11:07.911Z,74.09
2023-01-08T12:16:29.201Z,73.69
2023-01-08T12:21:40.378Z,73.63
2023-01-08T12:27:02.921Z,73.76
2023-01-08T12:32:43.616Z,73.74
2023-01-08T12:38:03.431Z,73.54
2023-01-08T12:43:12.445Z,73.18
2023-01-08T12:48:27.879Z,73.29
2023-01-08T12:53:43.132Z,73.37
2023-01-08T12:59:04.947Z,73.49
2023-01-08T13:04:08.540Z,73.28
2023-01-08T13:09:21.373Z,73.35
2023-01-08T13:14:23.473Z,72.91
2023-01-08T13:19:27.318Z,73.08
2023-01-08T13:24:38.350Z,73.44
2023-01-08T13:29:42.801Z,73.61
2023-01-08T13:34:44.453Z,73.61
2023-01-08T13:39:46.016Z,72.84
2023-01-08T13:44:52.923Z,73.61
2023-01-08T13:49:55.247Z,72.98
2023-01-08T13:54:56.932Z,72.63
2023-01-08T13:59:59.260Z,72.78
2023-01-08T14:05:02.212Z,73.36
2023-01-08T14:10:09.598Z,73.50
2023-01-08T14:15:28.087Z,74.36
2023-01-08T14:20:33.399Z,74.81
2023-01-08T14:25:35.002Z,75.13
2023-01-08T14:30:37.508Z,75.96
2023-01-08T14:35:40.194Z,76.81
2023-01-08T14:40:45.593Z,77.59
2023-01-08T14:45:49.844Z,78.21
2023-01-08T14:51:01.504Z,78.99
2023-01-08T14:56:04.812Z,79.44
2023-01-08T15:01:09.555Z,79.97
2023-01-08T15:06:11.610Z,79.66
2023-01-08T15:11:19.222Z,79.20
2023-01-08T15:16:31.279Z,79.33
2023-01-08T15:21:33.947Z,78.78
2023-01-08T15:26:41.535Z,77.99
2023-01-08T15:31:43.080Z,77.81
2023-01-08T15:36:46.482Z,79.13
2023-01-08T15:42:06.792Z,78.04
2023-01-08T15:47:08.417Z,78.00
2023-01-08T15:52:10.059Z,77.37
2023-01-08T15:57:12.119Z,77.84
2023-01-08T16:02:15.316Z,77.55
2023-01-08T16:07:17.004Z,77.35
2023-01-08T16:12:18.603Z,77.66
2023-01-08T16:17:20.243Z,77.51
2023-01-08T16:22:22.012Z,77.94
2023-01-08T16:27:23.891Z,77.66
2023-01-08T16:32:25.468Z,77.38
2023-01-08T16:37:27.061Z,78.05
2023-01-08T16:42:28.661Z,78.26
2023-01-08T16:47:30.273Z,77.71
2023-01-08T16:52:31.866Z,77.40
2023-01-08T16:57:33.513Z,77.38
2023-01-08T17:02:35.207Z,78.05
2023-01-08T17:07:36.808Z,79.30
2023-01-08T17:12:38.359Z,78.73
2023-01-08T17:17:39.951Z,78.99
2023-01-08T17:22:41.559Z,79.14
2023-01-08T17:27:43.233Z,79.95
2023-01-08T17:32:44.864Z,78.71
2023-01-08T17:37:46.937Z,78.21
2023-01-08T17:42:48.721Z,78.29
2023-01-08T17:47:50.305Z,77.76
2023-01-08T17:52:51.906Z,78.23
2023-01-08T17:57:53.499Z,78.46
2023-01-08T18:02:55.138Z,78.21
2023-01-08T18:07:56.858Z,79.27
2023-01-08T18:12:58.478Z,79.98
2023-01-08T18:18:01.006Z,79.31
2023-01-08T18:23:02.670Z,79.92
2023-01-08T18:28:04.290Z,80.57
2023-01-08T18:33:06.996Z,80.40
2023-01-08T18:38:15.884Z,80.85
2023-01-08T18:43:17.581Z,80.72
2023-01-08T18:48:19.153Z,81.05
2023-01-08T18:53:20.943Z,82.55
2023-01-08T18:58:22.550Z,83.83
2023-01-08T19:03:24.176Z,81.76
2023-01-08T19:08:25.927Z,81.57
2023-01-08T19:13:27.575Z,81.90
2023-01-08T19:18:29.211Z,82.82
2023-01-08T19:23:30.786Z,82.19
2023-01-08T19:28:32.481Z,82.02
2023-01-08T19:33:34.103Z,82.12
2023-01-08T19:38:35.703Z,81.78
2023-01-08T19:43:42.921Z,81.23
2023-01-08T19:48:45.509Z,81.69
2023-01-08T19:53:47.184Z,81.57
2023-01-08T19:58:48.985Z,81.01
2023-01-08T20:03:50.633Z,81.35
2023-01-08T20:08:54.394Z,81.13
2023-01-08T20:14:00.236Z,81.49
2023-01-08T20:19:04.353Z,81.43
2023-01-08T20:24:11.335Z,81.23
2023-01-08T20:29:14.391Z,81.70
2023-01-08T20:34:16.258Z,82.07
2023-01-08T20:39:18.369Z,81.38
2023-01-08T20:44:19.992Z,81.77
2023-01-08T20:49:21.637Z,82.48
2023-01-08T20:54:23.191Z,81.98
2023-01-08T20:59:24.907Z,81.18
2023-01-08T21:04:26.661Z,80.90
2023-01-08T21:09:28.457Z,80.92
2023-01-08T21:14:30.077Z,80.73
2023-01-08T21:19:31.811Z,80.54
2023-01-08T21:24:33.423Z,80.65
2023-01-08T21:29:35.035Z,80.57
2023-01-08T21:34:36.790Z,81.14
2023-01-08T21:39:38.386Z,80.67
2023-01-08T21:44:58.521Z,80.86
2023-01-08T21:50:00.225Z,80.67
2023-01-08T21:55:02.325Z,80.83
2023-01-08T22:00:04.691Z,80.96
2023-01-08T22:05:06.936Z,80.98
2023-01-08T22:10:09.386Z,80.80
2023-01-08T22:15:11.518Z,81.58
2023-01-08T22:20:13.534Z,81.62
2023-01-08T22:25:15.235Z,81.71
2023-01-08T22:30:17.609Z,81.29
2023-01-08T22:35:19.210Z,81.34
2023-01-08T22:40:20.827Z,81.21
2023-01-08T22:45:22.473Z,81.40
2023-01-08T22:50:24.034Z,80.63
2023-01-08T22:55:25.620Z,80.98
2023-01-08T23:00:27.221Z,81.07
2023-01-08T23:05:28.773Z,80.78
2023-01-08T23:10:30.504Z,81.17
2023-01-08T23:15:32.083Z,81.03
2023-01-08T23:20:33.649Z,80.79
2023-01-08T23:25:35.239Z,80.72
2023-01-08T23:30:40.453Z,80.86
2023-01-08T23:35:42.648Z,80.79
2023-01-08T23:40:45.376Z,80.82
2023-01-08T23:45:46.980Z,80.51
2023-01-08T23:50:48.559Z,80.45
2023-01-08T23:55:50.249Z,80.76
